sensor_id;sensor_type;location;lat;lon;timestamp;P1;durP1;ratioP1;P2;durP2;ratioP2
4353;SDS011;11018;51.258;6.806;2022-12-18T00:00:45;25.70;;;15.05;;
4353;SDS011;11018;51.258;6.806;2022-12-18T00:03:12;25.48;;;14.00;;
4353;SDS011;11018;51.258;6.806;2022-12-18T00:05:46;22.73;;;14.18;;
4353;SDS011;11018;51.258;6.806;2022-12-18T00:08:16;25.25;;;13.93;;
4353;SDS011;11018;51.258;6.806;2022-12-18T00:10:42;24.55;;;13.60;;
4353;SDS011;11018;51.258;6.806;2022-12-18T00:13:08;22.10;;;13.88;;
4353;SDS011;11018;51.258;6.806;2022-12-18T00:15:34;22.45;;;14.25;;
4353;SDS011;11018;51.258;6.806;2022-12-18T00:18:00;20.67;;;13.20;;
4353;SDS011;11018;51.258;6.806;2022-12-18T00:20:26;21.20;;;13.53;;
4353;SDS011;11018;51.258;6.806;2022-12-18T00:22:52;21.15;;;13.55;;
4353;SDS011;11018;51.258;6.806;2022-12-18T00:25:18;25.67;;;14.00;;
4353;SDS011;11018;51.258;6.806;2022-12-18T00:27:43;19.38;;;12.75;;
4353;SDS011;11018;51.258;6.806;2022-12-18T00:30:09;22.20;;;13.33;;
4353;SDS011;11018;51.258;6.806;2022-12-18T00:32:35;21.77;;;12.70;;
4353;SDS011;11018;51.258;6.806;2022-12-18T00:35:01;22.80;;;12.70;;
4353;SDS011;11018;51.258;6.806;2022-12-18T00:37:26;21.02;;;13.38;;
4353;SDS011;11018;51.258;6.806;2022-12-18T00:39:52;21.73;;;11.87;;
4353;SDS011;11018;51.258;6.806;2022-12-18T00:42:17;19.60;;;12.10;;
4353;SDS011;11018;51.258;6.806;2022-12-18T00:45:02;25.50;;;13.70;;
4353;SDS011;11018;51.258;6.806;2022-12-18T00:47:27;19.98;;;12.15;;
4353;SDS011;11018;51.258;6.806;2022-12-18T00:49:53;19.83;;;12.15;;
4353;SDS011;11018;51.258;6.806;2022-12-18T00:52:18;23.93;;;12.33;;
4353;SDS011;11018;51.258;6.806;2022-12-18T00:54:44;20.40;;;13.10;;
4353;SDS011;11018;51.258;6.806;2022-12-18T00:57:10;18.67;;;11.82;;
4353;SDS011;11018;51.258;6.806;2022-12-18T00:59:35;21.90;;;12.43;;
4353;SDS011;11018;51.258;6.806;2022-12-18T01:02:01;21.03;;;12.30;;
4353;SDS011;11018;51.258;6.806;2022-12-18T01:04:26;21.17;;;13.27;;
4353;SDS011;11018;51.258;6.806;2022-12-18T01:06:52;22.75;;;13.35;;
4353;SDS011;11018;51.258;6.806;2022-12-18T01:09:17;20.98;;;13.48;;
4353;SDS011;11018;51.258;6.806;2022-12-18T01:11:43;22.20;;;14.53;;
4353;SDS011;11018;51.258;6.806;2022-12-18T01:14:08;23.17;;;13.53;;
4353;SDS011;11018;51.258;6.806;2022-12-18T01:16:34;24.52;;;14.10;;
4353;SDS011;11018;51.258;6.806;2022-12-18T01:19:00;26.83;;;14.40;;
4353;SDS011;11018;51.258;6.806;2022-12-18T01:21:25;22.70;;;13.40;;
4353;SDS011;11018;51.258;6.806;2022-12-18T01:23:52;22.25;;;14.00;;
4353;SDS011;11018;51.258;6.806;2022-12-18T01:26:19;22.85;;;14.10;;
4353;SDS011;11018;51.258;6.806;2022-12-18T01:28:45;22.73;;;13.65;;
4353;SDS011;11018;51.258;6.806;2022-12-18T01:31:21;22.43;;;13.13;;
4353;SDS011;11018;51.258;6.806;2022-12-18T01:33:46;21.63;;;12.10;;
4353;SDS011;11018;51.258;6.806;2022-12-18T01:36:25;21.00;;;12.70;;
4353;SDS011;11018;51.258;6.806;2022-12-18T01:38:53;21.50;;;12.52;;
4353;SDS011;11018;51.258;6.806;2022-12-18T01:41:22;22.05;;;12.23;;
4353;SDS011;11018;51.258;6.806;2022-12-18T01:43:51;22.67;;;12.80;;
4353;SDS011;11018;51.258;6.806;2022-12-18T01:46:22;21.88;;;12.60;;
4353;SDS011;11018;51.258;6.806;2022-12-18T01:48:50;20.83;;;12.93;;
4353;SDS011;11018;51.258;6.806;2022-12-18T01:51:24;23.45;;;12.65;;
4353;SDS011;11018;51.258;6.806;2022-12-18T01:53:51;21.70;;;11.77;;
4353;SDS011;11018;51.258;6.806;2022-12-18T01:56:19;21.77;;;12.90;;
4353;SDS011;11018;51.258;6.806;2022-12-18T02:01:23;20.43;;;11.87;;
4353;SDS011;11018;51.258;6.806;2022-12-18T02:03:49;22.65;;;12.45;;
4353;SDS011;11018;51.258;6.806;2022-12-18T02:06:29;24.55;;;12.57;;
4353;SDS011;11018;51.258;6.806;2022-12-18T02:09:08;20.60;;;12.35;;
4353;SDS011;11018;51.258;6.806;2022-12-18T02:14:22;19.35;;;12.10;;
4353;SDS011;11018;51.258;6.806;2022-12-18T02:25:01;16.90;;;11.10;;
4353;SDS011;11018;51.258;6.806;2022-12-18T02:27:51;21.65;;;12.88;;
4353;SDS011;11018;51.258;6.806;2022-12-18T02:30:19;24.15;;;13.40;;
4353;SDS011;11018;51.258;6.806;2022-12-18T02:32:47;21.17;;;12.50;;
4353;SDS011;11018;51.258;6.806;2022-12-18T02:35:18;20.85;;;12.63;;
4353;SDS011;11018;51.258;6.806;2022-12-18T02:37:49;19.02;;;11.55;;
4353;SDS011;11018;51.258;6.806;2022-12-18T02:40:19;20.75;;;12.40;;
4353;SDS011;11018;51.258;6.806;2022-12-18T02:42:46;19.42;;;11.93;;
4353;SDS011;11018;51.258;6.806;2022-12-18T02:47:41;21.45;;;11.60;;
4353;SDS011;11018;51.258;6.806;2022-12-18T02:53:17;20.30;;;12.32;;
4353;SDS011;11018;51.258;6.806;2022-12-18T02:58:30;19.88;;;11.43;;
4353;SDS011;11018;51.258;6.806;2022-12-18T03:01:24;18.05;;;11.85;;
4353;SDS011;11018;51.258;6.806;2022-12-18T03:04:09;18.20;;;11.23;;
4353;SDS011;11018;51.258;6.806;2022-12-18T03:06:42;16.73;;;10.93;;
4353;SDS011;11018;51.258;6.806;2022-12-18T03:09:13;18.60;;;11.70;;
4353;SDS011;11018;51.258;6.806;2022-12-18T03:11:43;18.50;;;11.80;;
4353;SDS011;11018;51.258;6.806;2022-12-18T03:14:32;18.05;;;10.90;;
4353;SDS011;11018;51.258;6.806;2022-12-18T03:17:04;17.70;;;11.63;;
4353;SDS011;11018;51.258;6.806;2022-12-18T03:19:33;17.80;;;11.00;;
4353;SDS011;11018;51.258;6.806;2022-12-18T03:22:00;19.70;;;11.60;;
4353;SDS011;11018;51.258;6.806;2022-12-18T03:24:27;17.65;;;11.25;;
4353;SDS011;11018;51.258;6.806;2022-12-18T03:27:06;18.98;;;11.32;;
4353;SDS011;11018;51.258;6.806;2022-12-18T03:29:38;19.23;;;11.48;;
4353;SDS011;11018;51.258;6.806;2022-12-18T03:32:11;17.10;;;11.00;;
4353;SDS011;11018;51.258;6.806;2022-12-18T03:34:40;16.97;;;10.80;;
4353;SDS011;11018;51.258;6.806;2022-12-18T03:37:08;15.45;;;10.90;;
4353;SDS011;11018;51.258;6.806;2022-12-18T03:39:34;21.20;;;12.27;;
4353;SDS011;11018;51.258;6.806;2022-12-18T03:42:07;17.63;;;11.60;;
4353;SDS011;11018;51.258;6.806;2022-12-18T03:44:44;18.25;;;11.23;;
4353;SDS011;11018;51.258;6.806;2022-12-18T03:47:25;18.10;;;11.02;;
4353;SDS011;11018;51.258;6.806;2022-12-18T03:52:36;15.90;;;10.48;;
4353;SDS011;11018;51.258;6.806;2022-12-18T03:55:18;17.73;;;11.18;;
4353;SDS011;11018;51.258;6.806;2022-12-18T03:57:45;18.38;;;10.77;;
4353;SDS011;11018;51.258;6.806;2022-12-18T04:00:13;19.45;;;11.73;;
4353;SDS011;11018;51.258;6.806;2022-12-18T04:02:43;17.80;;;10.80;;
4353;SDS011;11018;51.258;6.806;2022-12-18T04:05:12;17.80;;;11.07;;
4353;SDS011;11018;51.258;6.806;2022-12-18T04:07:39;18.73;;;10.82;;
4353;SDS011;11018;51.258;6.806;2022-12-18T04:10:06;17.10;;;10.73;;
4353;SDS011;11018;51.258;6.806;2022-12-18T04:12:33;16.10;;;10.90;;
4353;SDS011;11018;51.258;6.806;2022-12-18T04:14:58;18.38;;;11.90;;
4353;SDS011;11018;51.258;6.806;2022-12-18T04:17:24;17.87;;;10.87;;
4353;SDS011;11018;51.258;6.806;2022-12-18T04:19:50;19.10;;;11.48;;
4353;SDS011;11018;51.258;6.806;2022-12-18T04:22:15;20.02;;;10.98;;
4353;SDS011;11018;51.258;6.806;2022-12-18T04:24:41;17.30;;;11.37;;
4353;SDS011;11018;51.258;6.806;2022-12-18T04:27:07;18.47;;;10.70;;
4353;SDS011;11018;51.258;6.806;2022-12-18T04:29:32;18.20;;;11.90;;
4353;SDS011;11018;51.258;6.806;2022-12-18T04:31:58;15.47;;;10.97;;
4353;SDS011;11018;51.258;6.806;2022-12-18T04:34:23;19.92;;;11.65;;
4353;SDS011;11018;51.258;6.806;2022-12-18T04:36:49;19.77;;;11.23;;
4353;SDS011;11018;51.258;6.806;2022-12-18T04:39:14;18.60;;;12.03;;
4353;SDS011;11018;51.258;6.806;2022-12-18T04:41:40;18.37;;;11.20;;
4353;SDS011;11018;51.258;6.806;2022-12-18T04:44:06;19.40;;;11.15;;
4353;SDS011;11018;51.258;6.806;2022-12-18T04:46:32;17.90;;;10.95;;
4353;SDS011;11018;51.258;6.806;2022-12-18T04:48:57;19.57;;;11.40;;
4353;SDS011;11018;51.258;6.806;2022-12-18T04:51:23;16.38;;;10.35;;
4353;SDS011;11018;51.258;6.806;2022-12-18T04:53:48;16.63;;;10.60;;
4353;SDS011;11018;51.258;6.806;2022-12-18T04:56:14;19.07;;;11.57;;
4353;SDS011;11018;51.258;6.806;2022-12-18T04:58:41;19.38;;;11.75;;
4353;SDS011;11018;51.258;6.806;2022-12-18T05:01:08;15.90;;;11.02;;
4353;SDS011;11018;51.258;6.806;2022-12-18T05:03:35;20.50;;;11.38;;
4353;SDS011;11018;51.258;6.806;2022-12-18T05:06:01;18.38;;;11.40;;
4353;SDS011;11018;51.258;6.806;2022-12-18T05:08:27;20.77;;;12.10;;
4353;SDS011;11018;51.258;6.806;2022-12-18T05:13:25;19.98;;;11.30;;
4353;SDS011;11018;51.258;6.806;2022-12-18T05:15:51;16.95;;;11.68;;
4353;SDS011;11018;51.258;6.806;2022-12-18T05:18:17;18.33;;;11.48;;
4353;SDS011;11018;51.258;6.806;2022-12-18T05:20:43;18.50;;;11.87;;
4353;SDS011;11018;51.258;6.806;2022-12-18T05:23:08;18.67;;;11.50;;
4353;SDS011;11018;51.258;6.806;2022-12-18T05:25:34;17.77;;;11.52;;
4353;SDS011;11018;51.258;6.806;2022-12-18T05:27:59;18.50;;;11.80;;
4353;SDS011;11018;51.258;6.806;2022-12-18T05:30:25;18.33;;;10.67;;
4353;SDS011;11018;51.258;6.806;2022-12-18T05:32:50;16.57;;;10.50;;
4353;SDS011;11018;51.258;6.806;2022-12-18T05:35:16;16.67;;;10.57;;
4353;SDS011;11018;51.258;6.806;2022-12-18T05:37:41;17.80;;;11.27;;
4353;SDS011;11018;51.258;6.806;2022-12-18T05:40:07;16.37;;;10.70;;
4353;SDS011;11018;51.258;6.806;2022-12-18T05:42:33;16.10;;;10.85;;
4353;SDS011;11018;51.258;6.806;2022-12-18T05:44:59;16.70;;;10.80;;
4353;SDS011;11018;51.258;6.806;2022-12-18T05:47:24;17.30;;;10.73;;
4353;SDS011;11018;51.258;6.806;2022-12-18T05:49:51;17.25;;;10.75;;
4353;SDS011;11018;51.258;6.806;2022-12-18T05:52:16;15.40;;;10.23;;
4353;SDS011;11018;51.258;6.806;2022-12-18T05:54:42;16.00;;;10.33;;
4353;SDS011;11018;51.258;6.806;2022-12-18T05:57:08;17.90;;;11.38;;
4353;SDS011;11018;51.258;6.806;2022-12-18T05:59:33;17.70;;;11.05;;
4353;SDS011;11018;51.258;6.806;2022-12-18T06:01:59;17.47;;;11.13;;
4353;SDS011;11018;51.258;6.806;2022-12-18T06:04:26;17.50;;;10.40;;
4353;SDS011;11018;51.258;6.806;2022-12-18T06:06:53;16.30;;;10.63;;
4353;SDS011;11018;51.258;6.806;2022-12-18T06:09:19;18.83;;;11.40;;
4353;SDS011;11018;51.258;6.806;2022-12-18T06:11:44;17.73;;;11.23;;
4353;SDS011;11018;51.258;6.806;2022-12-18T06:14:10;17.13;;;11.30;;
4353;SDS011;11018;51.258;6.806;2022-12-18T06:16:35;20.50;;;11.03;;
4353;SDS011;11018;51.258;6.806;2022-12-18T06:19:02;17.83;;;11.10;;
4353;SDS011;11018;51.258;6.806;2022-12-18T06:21:29;21.50;;;12.02;;
4353;SDS011;11018;51.258;6.806;2022-12-18T06:23:55;16.52;;;10.70;;
4353;SDS011;11018;51.258;6.806;2022-12-18T06:26:21;16.45;;;10.90;;
4353;SDS011;11018;51.258;6.806;2022-12-18T06:28:47;19.80;;;12.30;;
4353;SDS011;11018;51.258;6.806;2022-12-18T06:31:13;20.30;;;12.20;;
4353;SDS011;11018;51.258;6.806;2022-12-18T06:33:38;21.13;;;12.80;;
4353;SDS011;11018;51.258;6.806;2022-12-18T06:36:05;22.23;;;11.93;;
4353;SDS011;11018;51.258;6.806;2022-12-18T06:38:35;18.30;;;11.68;;
4353;SDS011;11018;51.258;6.806;2022-12-18T06:41:08;18.52;;;11.80;;
4353;SDS011;11018;51.258;6.806;2022-12-18T06:43:39;19.33;;;12.20;;
4353;SDS011;11018;51.258;6.806;2022-12-18T06:46:04;18.88;;;12.00;;
4353;SDS011;11018;51.258;6.806;2022-12-18T06:48:31;20.92;;;12.77;;
4353;SDS011;11018;51.258;6.806;2022-12-18T06:50:56;19.67;;;12.85;;
4353;SDS011;11018;51.258;6.806;2022-12-18T06:53:22;23.23;;;13.38;;
4353;SDS011;11018;51.258;6.806;2022-12-18T06:55:48;18.48;;;12.00;;
4353;SDS011;11018;51.258;6.806;2022-12-18T06:58:14;23.23;;;13.48;;
4353;SDS011;11018;51.258;6.806;2022-12-18T07:00:40;22.50;;;13.05;;
4353;SDS011;11018;51.258;6.806;2022-12-18T07:03:06;20.40;;;12.03;;
4353;SDS011;11018;51.258;6.806;2022-12-18T07:05:31;20.37;;;12.20;;
4353;SDS011;11018;51.258;6.806;2022-12-18T07:07:57;18.17;;;11.63;;
4353;SDS011;11018;51.258;6.806;2022-12-18T07:10:23;20.85;;;12.85;;
4353;SDS011;11018;51.258;6.806;2022-12-18T07:12:49;18.80;;;11.37;;
4353;SDS011;11018;51.258;6.806;2022-12-18T07:15:14;19.90;;;11.70;;
4353;SDS011;11018;51.258;6.806;2022-12-18T07:17:40;24.70;;;12.85;;
4353;SDS011;11018;51.258;6.806;2022-12-18T07:20:05;19.70;;;12.30;;
4353;SDS011;11018;51.258;6.806;2022-12-18T07:22:31;21.17;;;12.57;;
4353;SDS011;11018;51.258;6.806;2022-12-18T07:24:57;21.43;;;12.67;;
4353;SDS011;11018;51.258;6.806;2022-12-18T07:27:23;20.95;;;11.82;;
4353;SDS011;11018;51.258;6.806;2022-12-18T07:29:49;19.90;;;12.20;;
4353;SDS011;11018;51.258;6.806;2022-12-18T07:32:14;21.67;;;12.00;;
4353;SDS011;11018;51.258;6.806;2022-12-18T07:34:40;24.88;;;13.13;;
4353;SDS011;11018;51.258;6.806;2022-12-18T07:37:06;20.67;;;13.90;;
4353;SDS011;11018;51.258;6.806;2022-12-18T07:39:31;17.38;;;11.40;;
4353;SDS011;11018;51.258;6.806;2022-12-18T07:41:57;20.25;;;12.07;;
4353;SDS011;11018;51.258;6.806;2022-12-18T07:44:41;21.30;;;12.88;;
4353;SDS011;11018;51.258;6.806;2022-12-18T07:47:06;18.85;;;11.65;;
4353;SDS011;11018;51.258;6.806;2022-12-18T07:49:32;20.13;;;12.47;;
4353;SDS011;11018;51.258;6.806;2022-12-18T07:51:57;21.38;;;13.00;;
4353;SDS011;11018;51.258;6.806;2022-12-18T07:54:23;19.48;;;12.35;;
4353;SDS011;11018;51.258;6.806;2022-12-18T07:56:49;20.25;;;12.57;;
4353;SDS011;11018;51.258;6.806;2022-12-18T07:59:15;19.85;;;12.32;;
4353;SDS011;11018;51.258;6.806;2022-12-18T08:01:41;21.30;;;13.10;;
4353;SDS011;11018;51.258;6.806;2022-12-18T08:04:07;19.30;;;12.10;;
4353;SDS011;11018;51.258;6.806;2022-12-18T08:06:32;21.77;;;12.50;;
4353;SDS011;11018;51.258;6.806;2022-12-18T08:08:58;20.33;;;11.93;;
4353;SDS011;11018;51.258;6.806;2022-12-18T08:11:24;20.30;;;12.20;;
4353;SDS011;11018;51.258;6.806;2022-12-18T08:13:51;19.70;;;12.10;;
4353;SDS011;11018;51.258;6.806;2022-12-18T08:16:18;21.50;;;12.95;;
4353;SDS011;11018;51.258;6.806;2022-12-18T08:18:44;23.15;;;12.60;;
4353;SDS011;11018;51.258;6.806;2022-12-18T08:21:14;22.73;;;12.45;;
4353;SDS011;11018;51.258;6.806;2022-12-18T08:23:48;19.40;;;12.40;;
4353;SDS011;11018;51.258;6.806;2022-12-18T08:26:15;19.85;;;12.85;;
4353;SDS011;11018;51.258;6.806;2022-12-18T08:28:41;19.92;;;12.23;;
4353;SDS011;11018;51.258;6.806;2022-12-18T08:31:08;23.67;;;13.70;;
4353;SDS011;11018;51.258;6.806;2022-12-18T08:33:33;21.10;;;12.57;;
4353;SDS011;11018;51.258;6.806;2022-12-18T08:36:00;20.42;;;12.18;;
4353;SDS011;11018;51.258;6.806;2022-12-18T08:38:26;21.35;;;12.68;;
4353;SDS011;11018;51.258;6.806;2022-12-18T08:40:59;25.17;;;13.45;;
4353;SDS011;11018;51.258;6.806;2022-12-18T08:43:26;20.90;;;13.18;;
4353;SDS011;11018;51.258;6.806;2022-12-18T08:46:10;19.98;;;12.77;;
4353;SDS011;11018;51.258;6.806;2022-12-18T08:48:36;24.27;;;12.63;;
4353;SDS011;11018;51.258;6.806;2022-12-18T08:51:01;20.63;;;12.10;;
4353;SDS011;11018;51.258;6.806;2022-12-18T08:53:27;21.57;;;12.60;;
4353;SDS011;11018;51.258;6.806;2022-12-18T08:55:53;22.67;;;12.47;;
4353;SDS011;11018;51.258;6.806;2022-12-18T08:58:18;20.48;;;12.60;;
4353;SDS011;11018;51.258;6.806;2022-12-18T09:00:44;19.17;;;12.00;;
4353;SDS011;11018;51.258;6.806;2022-12-18T09:03:13;20.42;;;11.85;;
4353;SDS011;11018;51.258;6.806;2022-12-18T09:05:40;20.00;;;11.90;;
4353;SDS011;11018;51.258;6.806;2022-12-18T09:08:06;18.88;;;11.55;;
4353;SDS011;11018;51.258;6.806;2022-12-18T09:10:32;22.60;;;12.90;;
4353;SDS011;11018;51.258;6.806;2022-12-18T09:12:57;18.92;;;12.18;;
4353;SDS011;11018;51.258;6.806;2022-12-18T09:15:23;21.97;;;12.20;;
4353;SDS011;11018;51.258;6.806;2022-12-18T09:17:49;20.52;;;12.80;;
4353;SDS011;11018;51.258;6.806;2022-12-18T09:20:15;19.10;;;12.00;;
4353;SDS011;11018;51.258;6.806;2022-12-18T09:22:41;19.13;;;12.15;;
4353;SDS011;11018;51.258;6.806;2022-12-18T09:25:07;21.27;;;12.40;;
4353;SDS011;11018;51.258;6.806;2022-12-18T09:27:33;19.02;;;11.43;;
4353;SDS011;11018;51.258;6.806;2022-12-18T09:29:59;18.90;;;11.80;;
4353;SDS011;11018;51.258;6.806;2022-12-18T09:32:25;20.27;;;12.67;;
4353;SDS011;11018;51.258;6.806;2022-12-18T09:34:50;19.15;;;12.27;;
4353;SDS011;11018;51.258;6.806;2022-12-18T09:37:16;20.17;;;12.48;;
4353;SDS011;11018;51.258;6.806;2022-12-18T09:39:42;19.67;;;11.90;;
4353;SDS011;11018;51.258;6.806;2022-12-18T09:42:08;19.80;;;12.17;;
4353;SDS011;11018;51.258;6.806;2022-12-18T09:44:44;20.35;;;12.57;;
4353;SDS011;11018;51.258;6.806;2022-12-18T09:47:24;19.80;;;12.77;;
4353;SDS011;11018;51.258;6.806;2022-12-18T09:49:55;22.27;;;13.00;;
4353;SDS011;11018;51.258;6.806;2022-12-18T09:52:26;21.75;;;12.93;;
4353;SDS011;11018;51.258;6.806;2022-12-18T09:55:21;20.92;;;12.30;;
4353;SDS011;11018;51.258;6.806;2022-12-18T09:58:00;20.23;;;12.70;;
4353;SDS011;11018;51.258;6.806;2022-12-18T10:00:46;20.70;;;11.77;;
4353;SDS011;11018;51.258;6.806;2022-12-18T10:03:13;20.27;;;12.25;;
4353;SDS011;11018;51.258;6.806;2022-12-18T10:06:02;20.50;;;12.57;;
4353;SDS011;11018;51.258;6.806;2022-12-18T10:08:54;21.23;;;12.43;;
4353;SDS011;11018;51.258;6.806;2022-12-18T10:17:01;20.77;;;12.70;;
4353;SDS011;11018;51.258;6.806;2022-12-18T10:19:39;24.97;;;13.67;;
4353;SDS011;11018;51.258;6.806;2022-12-18T10:22:38;23.73;;;13.90;;
4353;SDS011;11018;51.258;6.806;2022-12-18T10:27:28;23.17;;;13.18;;
4353;SDS011;11018;51.258;6.806;2022-12-18T10:29:55;19.42;;;12.40;;
4353;SDS011;11018;51.258;6.806;2022-12-18T10:32:26;24.92;;;14.10;;
4353;SDS011;11018;51.258;6.806;2022-12-18T10:34:54;20.25;;;12.73;;
4353;SDS011;11018;51.258;6.806;2022-12-18T10:37:23;21.10;;;12.55;;
4353;SDS011;11018;51.258;6.806;2022-12-18T10:42:40;20.13;;;12.85;;
4353;SDS011;11018;51.258;6.806;2022-12-18T10:45:11;19.67;;;12.68;;
4353;SDS011;11018;51.258;6.806;2022-12-18T10:47:43;24.27;;;12.90;;
4353;SDS011;11018;51.258;6.806;2022-12-18T10:53:13;25.75;;;13.20;;
4353;SDS011;11018;51.258;6.806;2022-12-18T10:55:44;27.10;;;13.07;;
4353;SDS011;11018;51.258;6.806;2022-12-18T10:58:25;20.25;;;11.80;;
4353;SDS011;11018;51.258;6.806;2022-12-18T11:01:07;20.67;;;12.70;;
4353;SDS011;11018;51.258;6.806;2022-12-18T11:03:36;23.30;;;12.43;;
4353;SDS011;11018;51.258;6.806;2022-12-18T11:06:02;23.33;;;12.63;;
4353;SDS011;11018;51.258;6.806;2022-12-18T11:08:30;19.52;;;12.05;;
4353;SDS011;11018;51.258;6.806;2022-12-18T11:10:55;23.52;;;12.30;;
4353;SDS011;11018;51.258;6.806;2022-12-18T11:13:22;23.17;;;11.73;;
4353;SDS011;11018;51.258;6.806;2022-12-18T11:15:50;24.25;;;12.95;;
4353;SDS011;11018;51.258;6.806;2022-12-18T11:20:51;21.13;;;12.40;;
4353;SDS011;11018;51.258;6.806;2022-12-18T11:23:22;22.27;;;12.50;;
4353;SDS011;11018;51.258;6.806;2022-12-18T11:25:53;21.98;;;11.40;;
4353;SDS011;11018;51.258;6.806;2022-12-18T11:31:21;22.27;;;12.30;;
4353;SDS011;11018;51.258;6.806;2022-12-18T11:34:14;20.60;;;12.05;;
4353;SDS011;11018;51.258;6.806;2022-12-18T11:36:44;20.65;;;12.00;;
4353;SDS011;11018;51.258;6.806;2022-12-18T11:39:24;32.95;;;12.70;;
4353;SDS011;11018;51.258;6.806;2022-12-18T11:42:01;23.03;;;12.10;;
4353;SDS011;11018;51.258;6.806;2022-12-18T11:50:26;21.65;;;12.20;;
4353;SDS011;11018;51.258;6.806;2022-12-18T11:53:15;25.42;;;12.23;;
4353;SDS011;11018;51.258;6.806;2022-12-18T12:03:53;21.33;;;12.70;;
4353;SDS011;11018;51.258;6.806;2022-12-18T12:09:39;22.75;;;12.75;;
4353;SDS011;11018;51.258;6.806;2022-12-18T12:12:28;28.30;;;13.52;;
4353;SDS011;11018;51.258;6.806;2022-12-18T12:15:18;27.40;;;14.10;;
4353;SDS011;11018;51.258;6.806;2022-12-18T12:17:54;27.77;;;14.45;;
4353;SDS011;11018;51.258;6.806;2022-12-18T12:23:20;28.67;;;14.70;;
4353;SDS011;11018;51.258;6.806;2022-12-18T12:31:14;25.83;;;15.18;;
4353;SDS011;11018;51.258;6.806;2022-12-18T12:33:56;27.50;;;14.30;;
4353;SDS011;11018;51.258;6.806;2022-12-18T12:36:36;23.42;;;14.40;;
4353;SDS011;11018;51.258;6.806;2022-12-18T12:39:08;24.13;;;14.45;;
4353;SDS011;11018;51.258;6.806;2022-12-18T12:41:38;31.80;;;15.03;;
4353;SDS011;11018;51.258;6.806;2022-12-18T12:44:25;30.98;;;14.90;;
4353;SDS011;11018;51.258;6.806;2022-12-18T12:46:59;27.52;;;15.25;;
4353;SDS011;11018;51.258;6.806;2022-12-18T12:49:30;29.70;;;15.18;;
4353;SDS011;11018;51.258;6.806;2022-12-18T12:51:59;30.55;;;15.02;;
4353;SDS011;11018;51.258;6.806;2022-12-18T12:54:37;27.25;;;14.85;;
4353;SDS011;11018;51.258;6.806;2022-12-18T13:00:15;30.08;;;16.15;;
4353;SDS011;11018;51.258;6.806;2022-12-18T13:02:47;28.52;;;16.10;;
4353;SDS011;11018;51.258;6.806;2022-12-18T13:05:21;29.37;;;16.10;;
4353;SDS011;11018;51.258;6.806;2022-12-18T13:08:11;36.97;;;17.50;;
4353;SDS011;11018;51.258;6.806;2022-12-18T13:10:48;30.85;;;17.30;;
4353;SDS011;11018;51.258;6.806;2022-12-18T13:13:14;33.17;;;17.53;;
4353;SDS011;11018;51.258;6.806;2022-12-18T13:16:03;29.75;;;16.25;;
4353;SDS011;11018;51.258;6.806;2022-12-18T13:18:31;36.83;;;18.08;;
4353;SDS011;11018;51.258;6.806;2022-12-18T13:25:52;32.57;;;18.33;;
4353;SDS011;11018;51.258;6.806;2022-12-18T13:31:08;32.90;;;17.60;;
4353;SDS011;11018;51.258;6.806;2022-12-18T13:33:38;34.33;;;17.60;;
4353;SDS011;11018;51.258;6.806;2022-12-18T13:36:12;31.17;;;17.57;;
4353;SDS011;11018;51.258;6.806;2022-12-18T13:38:39;29.90;;;17.02;;
4353;SDS011;11018;51.258;6.806;2022-12-18T13:43:55;28.80;;;17.17;;
4353;SDS011;11018;51.258;6.806;2022-12-18T13:46:47;30.65;;;17.73;;
4353;SDS011;11018;51.258;6.806;2022-12-18T13:52:22;36.65;;;18.20;;
4353;SDS011;11018;51.258;6.806;2022-12-18T13:54:52;28.08;;;17.05;;
4353;SDS011;11018;51.258;6.806;2022-12-18T13:57:38;31.15;;;17.98;;
4353;SDS011;11018;51.258;6.806;2022-12-18T14:00:16;35.10;;;18.08;;
4353;SDS011;11018;51.258;6.806;2022-12-18T14:02:51;33.53;;;17.48;;
4353;SDS011;11018;51.258;6.806;2022-12-18T14:05:23;32.50;;;17.80;;
4353;SDS011;11018;51.258;6.806;2022-12-18T14:08:00;30.90;;;17.70;;
4353;SDS011;11018;51.258;6.806;2022-12-18T14:10:44;35.10;;;18.90;;
4353;SDS011;11018;51.258;6.806;2022-12-18T14:13:15;31.77;;;18.98;;
4353;SDS011;11018;51.258;6.806;2022-12-18T14:16:03;32.00;;;17.80;;
4353;SDS011;11018;51.258;6.806;2022-12-18T14:21:23;33.75;;;18.55;;
4353;SDS011;11018;51.258;6.806;2022-12-18T14:24:04;31.08;;;17.88;;
4353;SDS011;11018;51.258;6.806;2022-12-18T14:26:31;32.67;;;18.08;;
4353;SDS011;11018;51.258;6.806;2022-12-18T14:28:59;32.08;;;19.45;;
4353;SDS011;11018;51.258;6.806;2022-12-18T14:31:27;35.10;;;20.67;;
4353;SDS011;11018;51.258;6.806;2022-12-18T14:33:55;35.70;;;19.90;;
4353;SDS011;11018;51.258;6.806;2022-12-18T14:36:24;36.85;;;20.00;;
4353;SDS011;11018;51.258;6.806;2022-12-18T14:38:55;42.05;;;22.33;;
4353;SDS011;11018;51.258;6.806;2022-12-18T14:41:22;34.90;;;20.45;;
4353;SDS011;11018;51.258;6.806;2022-12-18T14:43:50;40.00;;;21.60;;
4353;SDS011;11018;51.258;6.806;2022-12-18T14:49:03;35.80;;;21.08;;
4353;SDS011;11018;51.258;6.806;2022-12-18T14:51:42;39.35;;;21.67;;
4353;SDS011;11018;51.258;6.806;2022-12-18T14:54:17;40.58;;;21.73;;
4353;SDS011;11018;51.258;6.806;2022-12-18T14:56:45;37.95;;;20.50;;
4353;SDS011;11018;51.258;6.806;2022-12-18T14:59:32;37.00;;;20.90;;
4353;SDS011;11018;51.258;6.806;2022-12-18T15:04:47;38.75;;;20.85;;
4353;SDS011;11018;51.258;6.806;2022-12-18T15:07:24;40.07;;;21.70;;
4353;SDS011;11018;51.258;6.806;2022-12-18T15:17:58;37.65;;;21.85;;
4353;SDS011;11018;51.258;6.806;2022-12-18T15:20:25;40.53;;;22.70;;
4353;SDS011;11018;51.258;6.806;2022-12-18T15:22:50;38.65;;;21.63;;
4353;SDS011;11018;51.258;6.806;2022-12-18T15:25:22;43.37;;;21.43;;
4353;SDS011;11018;51.258;6.806;2022-12-18T15:27:55;38.05;;;21.67;;
4353;SDS011;11018;51.258;6.806;2022-12-18T15:30:21;41.47;;;22.50;;
4353;SDS011;11018;51.258;6.806;2022-12-18T15:32:48;39.47;;;21.85;;
4353;SDS011;11018;51.258;6.806;2022-12-18T15:37:40;36.50;;;21.70;;
4353;SDS011;11018;51.258;6.806;2022-12-18T15:40:07;41.25;;;22.52;;
4353;SDS011;11018;51.258;6.806;2022-12-18T15:42:37;36.35;;;21.70;;
4353;SDS011;11018;51.258;6.806;2022-12-18T15:45:21;38.50;;;21.17;;
4353;SDS011;11018;51.258;6.806;2022-12-18T15:47:46;39.30;;;21.50;;
4353;SDS011;11018;51.258;6.806;2022-12-18T15:50:12;36.50;;;21.70;;
4353;SDS011;11018;51.258;6.806;2022-12-18T15:52:41;40.10;;;21.48;;
4353;SDS011;11018;51.258;6.806;2022-12-18T15:55:17;38.95;;;22.85;;
4353;SDS011;11018;51.258;6.806;2022-12-18T15:58:06;40.58;;;22.77;;
4353;SDS011;11018;51.258;6.806;2022-12-18T16:00:32;41.53;;;22.63;;
4353;SDS011;11018;51.258;6.806;2022-12-18T16:03:00;41.70;;;22.90;;
4353;SDS011;11018;51.258;6.806;2022-12-18T16:05:26;37.93;;;21.30;;
4353;SDS011;11018;51.258;6.806;2022-12-18T16:07:52;46.03;;;22.45;;
4353;SDS011;11018;51.258;6.806;2022-12-18T16:10:18;39.50;;;22.08;;
4353;SDS011;11018;51.258;6.806;2022-12-18T16:12:44;41.83;;;23.30;;
4353;SDS011;11018;51.258;6.806;2022-12-18T16:15:11;41.40;;;22.60;;
4353;SDS011;11018;51.258;6.806;2022-12-18T16:17:38;42.63;;;22.97;;
4353;SDS011;11018;51.258;6.806;2022-12-18T16:20:05;43.03;;;23.23;;
4353;SDS011;11018;51.258;6.806;2022-12-18T16:22:41;38.25;;;22.70;;
4353;SDS011;11018;51.258;6.806;2022-12-18T16:25:20;42.40;;;24.27;;
4353;SDS011;11018;51.258;6.806;2022-12-18T16:27:48;44.30;;;23.52;;
4353;SDS011;11018;51.258;6.806;2022-12-18T16:30:14;46.03;;;24.40;;
4353;SDS011;11018;51.258;6.806;2022-12-18T16:32:41;43.90;;;23.50;;
4353;SDS011;11018;51.258;6.806;2022-12-18T16:35:09;46.03;;;24.97;;